sensor_id;sensor_type;location;lat;lon;timestamp;temperature;humidity
14049;DHT22;7099;53.922;10.728;2023-07-09T00:02:49;19.20;68.60
14049;DHT22;7099;53.922;10.728;2023-07-09T00:07:00;19.20;68.40
14049;DHT22;7099;53.922;10.728;2023-07-09T00:11:08;18.80;69.10
14049;DHT22;7099;53.922;10.728;2023-07-09T00:15:14;18.40;69.40
14049;DHT22;7099;53.922;10.728;2023-07-09T00:19:23;18.30;70.00
14049;DHT22;7099;53.922;10.728;2023-07-09T00:23:29;18.00;70.60
14049;DHT22;7099;53.922;10.728;2023-07-09T00:27:34;17.90;71.10
14049;DHT22;7099;53.922;10.728;2023-07-09T00:31:40;17.80;71.60
14049;DHT22;7099;53.922;10.728;2023-07-09T00:35:49;18.20;71.50
14049;DHT22;7099;53.922;10.728;2023-07-09T00:39:55;18.00;71.30
14049;DHT22;7099;53.922;10.728;2023-07-09T00:48:24;17.70;72.30
14049;DHT22;7099;53.922;10.728;2023-07-09T00:52:37;17.50;71.60
14049;DHT22;7099;53.922;10.728;2023-07-09T00:56:45;17.50;71.60
14049;DHT22;7099;53.922;10.728;2023-07-09T01:00:52;17.40;71.90
14049;DHT22;7099;53.922;10.728;2023-07-09T01:05:00;17.40;71.60
14049;DHT22;7099;53.922;10.728;2023-07-09T01:09:06;17.30;72.00
14049;DHT22;7099;53.922;10.728;2023-07-09T01:13:12;17.20;72.00
14049;DHT22;7099;53.922;10.728;2023-07-09T01:17:18;17.20;72.10
14049;DHT22;7099;53.922;10.728;2023-07-09T01:21:23;17.10;72.40
14049;DHT22;7099;53.922;10.728;2023-07-09T01:25:29;17.00;72.50
14049;DHT22;7099;53.922;10.728;2023-07-09T01:29:34;17.00;72.40
14049;DHT22;7099;53.922;10.728;2023-07-09T01:33:41;17.00;72.20
14049;DHT22;7099;53.922;10.728;2023-07-09T01:37:49;16.90;72.30
14049;DHT22;7099;53.922;10.728;2023-07-09T01:41:54;16.80;71.80
14049;DHT22;7099;53.922;10.728;2023-07-09T01:46:00;16.80;71.90
14049;DHT22;7099;53.922;10.728;2023-07-09T01:50:06;16.70;72.60
14049;DHT22;7099;53.922;10.728;2023-07-09T01:54:12;16.60;72.50
14049;DHT22;7099;53.922;10.728;2023-07-09T01:58:18;16.50;72.10
14049;DHT22;7099;53.922;10.728;2023-07-09T02:02:23;16.50;72.40
14049;DHT22;7099;53.922;10.728;2023-07-09T02:06:30;16.50;72.10
14049;DHT22;7099;53.922;10.728;2023-07-09T02:10:37;16.40;72.20
14049;DHT22;7099;53.922;10.728;2023-07-09T02:14:43;16.30;72.40
14049;DHT22;7099;53.922;10.728;2023-07-09T02:18:49;16.30;72.50
14049;DHT22;7099;53.922;10.728;2023-07-09T02:22:54;16.30;72.50
14049;DHT22;7099;53.922;10.728;2023-07-09T02:27:00;16.30;72.60
14049;DHT22;7099;53.922;10.728;2023-07-09T02:31:07;16.20;72.10
14049;DHT22;7099;53.922;10.728;2023-07-09T02:35:12;16.10;72.10
14049;DHT22;7099;53.922;10.728;2023-07-09T02:39:18;16.10;72.00
14049;DHT22;7099;53.922;10.728;2023-07-09T02:43:24;16.00;72.30
14049;DHT22;7099;53.922;10.728;2023-07-09T02:47:29;16.00;72.30
14049;DHT22;7099;53.922;10.728;2023-07-09T02:51:35;16.00;72.60
14049;DHT22;7099;53.922;10.728;2023-07-09T02:55:40;15.90;72.00
14049;DHT22;7099;53.922;10.728;2023-07-09T02:59:45;15.90;72.80
14049;DHT22;7099;53.922;10.728;2023-07-09T03:03:51;15.80;72.80
14049;DHT22;7099;53.922;10.728;2023-07-09T03:08:00;15.80;72.70
14049;DHT22;7099;53.922;10.728;2023-07-09T03:12:05;15.80;72.50
14049;DHT22;7099;53.922;10.728;2023-07-09T03:16:11;15.80;72.90
14049;DHT22;7099;53.922;10.728;2023-07-09T03:20:17;15.70;72.70
14049;DHT22;7099;53.922;10.728;2023-07-09T03:24:23;15.70;73.70
14049;DHT22;7099;53.922;10.728;2023-07-09T03:28:29;15.60;73.20
14049;DHT22;7099;53.922;10.728;2023-07-09T03:32:35;15.70;73.60
14049;DHT22;7099;53.922;10.728;2023-07-09T03:36:41;15.60;74.20
14049;DHT22;7099;53.922;10.728;2023-07-09T03:40:49;15.60;74.00
14049;DHT22;7099;53.922;10.728;2023-07-09T03:44:55;15.60;74.30
14049;DHT22;7099;53.922;10.728;2023-07-09T03:49:01;15.60;74.40
14049;DHT22;7099;53.922;10.728;2023-07-09T03:53:06;15.60;74.10
14049;DHT22;7099;53.922;10.728;2023-07-09T03:57:11;15.60;75.40
14049;DHT22;7099;53.922;10.728;2023-07-09T04:01:17;15.70;74.80
14049;DHT22;7099;53.922;10.728;2023-07-09T04:05:25;15.70;75.20
14049;DHT22;7099;53.922;10.728;2023-07-09T04:09:31;15.80;75.40
14049;DHT22;7099;53.922;10.728;2023-07-09T04:13:37;15.80;74.80
14049;DHT22;7099;53.922;10.728;2023-07-09T04:17:43;15.90;74.00
14049;DHT22;7099;53.922;10.728;2023-07-09T04:21:49;16.00;74.00
14049;DHT22;7099;53.922;10.728;2023-07-09T04:25:54;16.10;73.60
14049;DHT22;7099;53.922;10.728;2023-07-09T04:29:59;16.20;74.20
14049;DHT22;7099;53.922;10.728;2023-07-09T04:34:05;16.30;72.80
14049;DHT22;7099;53.922;10.728;2023-07-09T04:38:11;16.40;73.50
14049;DHT22;7099;53.922;10.728;2023-07-09T04:42:18;16.60;71.80
14049;DHT22;7099;53.922;10.728;2023-07-09T04:46:23;16.70;71.40
14049;DHT22;7099;53.922;10.728;2023-07-09T04:50:28;16.80;72.00
14049;DHT22;7099;53.922;10.728;2023-07-09T04:54:34;17.00;71.00
14049;DHT22;7099;53.922;10.728;2023-07-09T04:58:39;17.10;73.00
14049;DHT22;7099;53.922;10.728;2023-07-09T05:02:44;17.20;71.30
14049;DHT22;7099;53.922;10.728;2023-07-09T05:06:50;17.40;71.10
14049;DHT22;7099;53.922;10.728;2023-07-09T05:10:56;17.50;70.30
14049;DHT22;7099;53.922;10.728;2023-07-09T05:15:02;17.60;69.60
14049;DHT22;7099;53.922;10.728;2023-07-09T05:19:08;17.70;70.00
14049;DHT22;7099;53.922;10.728;2023-07-09T05:23:13;17.80;70.00
14049;DHT22;7099;53.922;10.728;2023-07-09T05:27:18;18.00;70.50
14049;DHT22;7099;53.922;10.728;2023-07-09T05:31:24;18.10;70.50
14049;DHT22;7099;53.922;10.728;2023-07-09T05:35:31;18.30;70.20
14049;DHT22;7099;53.922;10.728;2023-07-09T05:39:36;18.40;70.10
14049;DHT22;7099;53.922;10.728;2023-07-09T05:43:43;18.50;69.30
14049;DHT22;7099;53.922;10.728;2023-07-09T05:47:51;18.60;69.40
14049;DHT22;7099;53.922;10.728;2023-07-09T05:51:57;18.70;69.40
14049;DHT22;7099;53.922;10.728;2023-07-09T05:56:02;18.80;69.60
14049;DHT22;7099;53.922;10.728;2023-07-09T06:00:08;19.00;69.40
14049;DHT22;7099;53.922;10.728;2023-07-09T06:04:17;19.20;68.50
14049;DHT22;7099;53.922;10.728;2023-07-09T06:08:23;19.30;67.90
14049;DHT22;7099;53.922;10.728;2023-07-09T06:12:28;19.40;67.20
14049;DHT22;7099;53.922;10.728;2023-07-09T06:16:34;19.60;67.10
14049;DHT22;7099;53.922;10.728;2023-07-09T06:20:40;20.20;66.80
14049;DHT22;7099;53.922;10.728;2023-07-09T06:24:46;20.20;67.20
14049;DHT22;7099;53.922;10.728;2023-07-09T06:28:51;20.30;67.10
14049;DHT22;7099;53.922;10.728;2023-07-09T06:32:57;20.50;66.70
14049;DHT22;7099;53.922;10.728;2023-07-09T06:37:03;20.70;65.40
14049;DHT22;7099;53.922;10.728;2023-07-09T06:41:11;20.90;64.50
14049;DHT22;7099;53.922;10.728;2023-07-09T06:45:17;21.00;63.80
14049;DHT22;7099;53.922;10.728;2023-07-09T06:49:22;21.30;63.20
14049;DHT22;7099;53.922;10.728;2023-07-09T06:53:28;21.50;63.40
14049;DHT22;7099;53.922;10.728;2023-07-09T06:57:34;21.60;62.20
14049;DHT22;7099;53.922;10.728;2023-07-09T07:01:39;21.80;59.90
14049;DHT22;7099;53.922;10.728;2023-07-09T07:05:47;22.00;59.70
14049;DHT22;7099;53.922;10.728;2023-07-09T07:09:58;22.20;59.50
14049;DHT22;7099;53.922;10.728;2023-07-09T07:14:03;22.40;58.40
14049;DHT22;7099;53.922;10.728;2023-07-09T07:18:09;22.60;58.00
14049;DHT22;7099;53.922;10.728;2023-07-09T07:22:14;22.80;58.00
14049;DHT22;7099;53.922;10.728;2023-07-09T07:26:20;23.00;57.90
14049;DHT22;7099;53.922;10.728;2023-07-09T07:30:25;23.30;56.60
14049;DHT22;7099;53.922;10.728;2023-07-09T07:34:31;23.50;57.70
14049;DHT22;7099;53.922;10.728;2023-07-09T07:38:36;23.70;57.30
14049;DHT22;7099;53.922;10.728;2023-07-09T07:42:42;24.00;56.60
14049;DHT22;7099;53.922;10.728;2023-07-09T07:46:47;24.20;56.60
14049;DHT22;7099;53.922;10.728;2023-07-09T07:51:01;24.30;56.30
14049;DHT22;7099;53.922;10.728;2023-07-09T07:55:09;24.50;55.30
14049;DHT22;7099;53.922;10.728;2023-07-09T07:59:19;24.60;55.60
14049;DHT22;7099;53.922;10.728;2023-07-09T08:03:25;24.80;55.60
14049;DHT22;7099;53.922;10.728;2023-07-09T08:07:31;25.10;55.20
14049;DHT22;7099;53.922;10.728;2023-07-09T08:11:36;25.20;55.10
14049;DHT22;7099;53.922;10.728;2023-07-09T08:15:42;25.40;54.00
14049;DHT22;7099;53.922;10.728;2023-07-09T08:19:52;25.70;54.10
14049;DHT22;7099;53.922;10.728;2023-07-09T08:23:59;25.80;54.70
14049;DHT22;7099;53.922;10.728;2023-07-09T08:28:05;26.00;53.60
14049;DHT22;7099;53.922;10.728;2023-07-09T08:32:11;26.20;53.40
14049;DHT22;7099;53.922;10.728;2023-07-09T08:36:17;26.40;53.70
14049;DHT22;7099;53.922;10.728;2023-07-09T08:40:23;26.50;53.80
14049;DHT22;7099;53.922;10.728;2023-07-09T08:48:56;26.80;53.10
14049;DHT22;7099;53.922;10.728;2023-07-09T08:53:05;26.90;53.20
14049;DHT22;7099;53.922;10.728;2023-07-09T08:57:25;27.10;52.10
14049;DHT22;7099;53.922;10.728;2023-07-09T09:01:46;27.20;52.60
14049;DHT22;7099;53.922;10.728;2023-07-09T09:05:56;27.30;51.80
14049;DHT22;7099;53.922;10.728;2023-07-09T09:10:03;27.40;52.00
14049;DHT22;7099;53.922;10.728;2023-07-09T09:14:34;27.60;51.80
14049;DHT22;7099;53.922;10.728;2023-07-09T09:18:43;27.80;50.50
14049;DHT22;7099;53.922;10.728;2023-07-09T09:23:13;27.90;51.30
14049;DHT22;7099;53.922;10.728;2023-07-09T09:27:23;28.10;50.50
14049;DHT22;7099;53.922;10.728;2023-07-09T09:31:30;28.20;50.80
14049;DHT22;7099;53.922;10.728;2023-07-09T09:35:38;28.40;50.30
14049;DHT22;7099;53.922;10.728;2023-07-09T09:39:45;29.00;48.30
14049;DHT22;7099;53.922;10.728;2023-07-09T09:44:27;28.90;49.40
14049;DHT22;7099;53.922;10.728;2023-07-09T09:48:33;28.80;49.50
14049;DHT22;7099;53.922;10.728;2023-07-09T09:52:39;28.90;50.90
14049;DHT22;7099;53.922;10.728;2023-07-09T09:56:45;29.10;50.10
14049;DHT22;7099;53.922;10.728;2023-07-09T10:00:53;29.30;49.60
14049;DHT22;7099;53.922;10.728;2023-07-09T10:05:01;29.40;49.20
14049;DHT22;7099;53.922;10.728;2023-07-09T10:13:57;29.70;47.10
14049;DHT22;7099;53.922;10.728;2023-07-09T10:22:55;29.90;47.20
14049;DHT22;7099;53.922;10.728;2023-07-09T10:27:13;30.00;46.00
14049;DHT22;7099;53.922;10.728;2023-07-09T10:31:30;30.10;46.30
14049;DHT22;7099;53.922;10.728;2023-07-09T10:40:13;30.10;46.60
14049;DHT22;7099;53.922;10.728;2023-07-09T10:44:24;30.30;46.40
14049;DHT22;7099;53.922;10.728;2023-07-09T10:48:49;30.40;46.00
14049;DHT22;7099;53.922;10.728;2023-07-09T10:53:01;30.40;45.50
14049;DHT22;7099;53.922;10.728;2023-07-09T10:57:30;30.50;45.80
14049;DHT22;7099;53.922;10.728;2023-07-09T11:01:47;30.80;45.50
14049;DHT22;7099;53.922;10.728;2023-07-09T11:05:55;30.90;45.50
14049;DHT22;7099;53.922;10.728;2023-07-09T11:10:04;31.20;44.90
14049;DHT22;7099;53.922;10.728;2023-07-09T11:14:37;31.30;44.40
14049;DHT22;7099;53.922;10.728;2023-07-09T11:18:59;31.50;43.80
14049;DHT22;7099;53.922;10.728;2023-07-09T11:23:20;31.70;43.40
14049;DHT22;7099;53.922;10.728;2023-07-09T11:27:27;31.70;42.70
14049;DHT22;7099;53.922;10.728;2023-07-09T11:31:37;31.80;42.90
14049;DHT22;7099;53.922;10.728;2023-07-09T11:35:49;31.80;42.70
14049;DHT22;7099;53.922;10.728;2023-07-09T11:40:06;31.80;42.50
14049;DHT22;7099;53.922;10.728;2023-07-09T11:44:25;31.90;42.50
14049;DHT22;7099;53.922;10.728;2023-07-09T11:48:34;32.00;42.00
14049;DHT22;7099;53.922;10.728;2023-07-09T11:52:47;32.20;42.40
14049;DHT22;7099;53.922;10.728;2023-07-09T11:57:13;32.30;42.70
14049;DHT22;7099;53.922;10.728;2023-07-09T12:01:22;32.20;41.90
14049;DHT22;7099;53.922;10.728;2023-07-09T12:05:29;32.20;42.20
14049;DHT22;7099;53.922;10.728;2023-07-09T12:09:40;32.30;42.70
14049;DHT22;7099;53.922;10.728;2023-07-09T12:13:47;32.30;42.10
14049;DHT22;7099;53.922;10.728;2023-07-09T12:18:03;32.30;42.20
14049;DHT22;7099;53.922;10.728;2023-07-09T12:22:20;32.30;40.50
14049;DHT22;7099;53.922;10.728;2023-07-09T12:26:30;32.20;41.30
14049;DHT22;7099;53.922;10.728;2023-07-09T12:30:36;32.30;41.50
14049;DHT22;7099;53.922;10.728;2023-07-09T12:34:42;32.30;41.60
14049;DHT22;7099;53.922;10.728;2023-07-09T12:38:54;32.30;41.50
14049;DHT22;7099;53.922;10.728;2023-07-09T12:43:02;32.30;41.20
14049;DHT22;7099;53.922;10.728;2023-07-09T12:47:13;32.20;41.50
14049;DHT22;7099;53.922;10.728;2023-07-09T12:51:25;32.20;41.20
14049;DHT22;7099;53.922;10.728;2023-07-09T12:55:39;32.20;41.50
14049;DHT22;7099;53.922;10.728;2023-07-09T12:59:46;32.20;41.00
14049;DHT22;7099;53.922;10.728;2023-07-09T13:03:56;32.10;41.30
14049;DHT22;7099;53.922;10.728;2023-07-09T13:08:02;32.20;41.10
14049;DHT22;7099;53.922;10.728;2023-07-09T13:12:11;32.20;41.40
14049;DHT22;7099;53.922;10.728;2023-07-09T13:16:16;32.10;41.20
14049;DHT22;7099;53.922;10.728;2023-07-09T13:20:22;32.10;41.40
14049;DHT22;7099;53.922;10.728;2023-07-09T13:24:32;32.10;41.50
14049;DHT22;7099;53.922;10.728;2023-07-09T13:28:40;32.10;41.80
14049;DHT22;7099;53.922;10.728;2023-07-09T13:32:48;32.00;42.00
14049;DHT22;7099;53.922;10.728;2023-07-09T13:36:55;31.90;41.90
14049;DHT22;7099;53.922;10.728;2023-07-09T13:41:12;31.80;41.90
14049;DHT22;7099;53.922;10.728;2023-07-09T13:45:23;31.60;42.20
14049;DHT22;7099;53.922;10.728;2023-07-09T13:49:30;31.30;42.60
14049;DHT22;7099;53.922;10.728;2023-07-09T13:53:35;31.30;43.20
14049;DHT22;7099;53.922;10.728;2023-07-09T13:57:41;31.30;43.40
14049;DHT22;7099;53.922;10.728;2023-07-09T14:01:47;31.30;43.10
14049;DHT22;7099;53.922;10.728;2023-07-09T14:05:54;31.30;42.90
14049;DHT22;7099;53.922;10.728;2023-07-09T14:10:01;31.30;43.40
14049;DHT22;7099;53.922;10.728;2023-07-09T14:14:23;31.30;43.20
14049;DHT22;7099;53.922;10.728;2023-07-09T14:18:30;31.20;42.90
14049;DHT22;7099;53.922;10.728;2023-07-09T14:22:37;31.00;43.30
14049;DHT22;7099;53.922;10.728;2023-07-09T14:26:43;30.80;43.10
14049;DHT22;7099;53.922;10.728;2023-07-09T14:30:50;30.60;43.30
14049;DHT22;7099;53.922;10.728;2023-07-09T14:34:56;30.50;43.80
14049;DHT22;7099;53.922;10.728;2023-07-09T14:39:01;30.40;43.70
14049;DHT22;7099;53.922;10.728;2023-07-09T14:43:11;30.20;44.00
14049;DHT22;7099;53.922;10.728;2023-07-09T14:47:20;30.10;43.60
14049;DHT22;7099;53.922;10.728;2023-07-09T14:51:26;30.00;44.00
14049;DHT22;7099;53.922;10.728;2023-07-09T14:55:32;30.10;44.20
14049;DHT22;7099;53.922;10.728;2023-07-09T14:59:37;30.20;44.20
14049;DHT22;7099;53.922;10.728;2023-07-09T15:03:43;30.20;44.10
14049;DHT22;7099;53.922;10.728;2023-07-09T15:07:50;30.30;44.00
14049;DHT22;7099;53.922;10.728;2023-07-09T15:11:58;30.30;43.70
14049;DHT22;7099;53.922;10.728;2023-07-09T15:16:04;30.30;44.00
14049;DHT22;7099;53.922;10.728;2023-07-09T15:24:41;29.90;43.80
14049;DHT22;7099;53.922;10.728;2023-07-09T15:28:47;30.00;43.30
14049;DHT22;7099;53.922;10.728;2023-07-09T15:32:57;29.90;43.40
14049;DHT22;7099;53.922;10.728;2023-07-09T15:37:16;29.90;43.60
14049;DHT22;7099;53.922;10.728;2023-07-09T15:41:22;30.10;43.40
14049;DHT22;7099;53.922;10.728;2023-07-09T15:45:28;30.30;43.00
14049;DHT22;7099;53.922;10.728;2023-07-09T15:49:33;30.40;42.40
14049;DHT22;7099;53.922;10.728;2023-07-09T15:53:39;30.60;42.30
14049;DHT22;7099;53.922;10.728;2023-07-09T15:57:46;30.80;41.30
14049;DHT22;7099;53.922;10.728;2023-07-09T16:01:53;30.80;41.40
14049;DHT22;7099;53.922;10.728;2023-07-09T16:05:59;30.80;41.20
14049;DHT22;7099;53.922;10.728;2023-07-09T16:10:04;31.00;41.60
14049;DHT22;7099;53.922;10.728;2023-07-09T16:18:36;31.00;42.10
14049;DHT22;7099;53.922;10.728;2023-07-09T16:22:44;31.00;41.70
14049;DHT22;7099;53.922;10.728;2023-07-09T16:26:51;31.00;42.00
14049;DHT22;7099;53.922;10.728;2023-07-09T16:30:57;31.00;42.20
14049;DHT22;7099;53.922;10.728;2023-07-09T16:35:03;31.00;42.20
14049;DHT22;7099;53.922;10.728;2023-07-09T16:39:45;31.00;42.50
14049;DHT22;7099;53.922;10.728;2023-07-09T16:43:49;31.00;42.60
14049;DHT22;7099;53.922;10.728;2023-07-09T16:47:55;30.90;42.90
14049;DHT22;7099;53.922;10.728;2023-07-09T16:52:01;30.70;43.30
14049;DHT22;7099;53.922;10.728;2023-07-09T16:56:11;30.50;43.60
14049;DHT22;7099;53.922;10.728;2023-07-09T17:00:22;30.20;43.80
14049;DHT22;7099;53.922;10.728;2023-07-09T17:04:28;29.90;44.40
14049;DHT22;7099;53.922;10.728;2023-07-09T17:08:35;29.80;45.10
14049;DHT22;7099;53.922;10.728;2023-07-09T17:12:41;29.60;45.50
14049;DHT22;7099;53.922;10.728;2023-07-09T17:16:47;29.30;45.80
14049;DHT22;7099;53.922;10.728;2023-07-09T17:20:55;29.10;46.50
14049;DHT22;7099;53.922;10.728;2023-07-09T17:25:10;28.80;47.10
14049;DHT22;7099;53.922;10.728;2023-07-09T17:29:24;28.70;47.50
14049;DHT22;7099;53.922;10.728;2023-07-09T17:33:29;28.60;47.90
14049;DHT22;7099;53.922;10.728;2023-07-09T17:37:36;28.50;48.20
14049;DHT22;7099;53.922;10.728;2023-07-09T17:41:42;28.40;48.40
14049;DHT22;7099;53.922;10.728;2023-07-09T17:45:49;28.30;48.80
14049;DHT22;7099;53.922;10.728;2023-07-09T17:49:55;28.00;49.60
14049;DHT22;7099;53.922;10.728;2023-07-09T17:54:01;27.80;50.00
14049;DHT22;7099;53.922;10.728;2023-07-09T17:58:11;27.70;50.70
14049;DHT22;7099;53.922;10.728;2023-07-09T18:02:22;27.40;51.30
14049;DHT22;7099;53.922;10.728;2023-07-09T18:06:33;27.20;52.00
14049;DHT22;7099;53.922;10.728;2023-07-09T18:10:41;27.00;52.50
14049;DHT22;7099;53.922;10.728;2023-07-09T18:14:49;26.90;53.00
14049;DHT22;7099;53.922;10.728;2023-07-09T18:18:56;26.70;53.50
14049;DHT22;7099;53.922;10.728;2023-07-09T18:23:07;26.60;53.90
14049;DHT22;7099;53.922;10.728;2023-07-09T18:27:22;26.50;54.30
14049;DHT22;7099;53.922;10.728;2023-07-09T18:31:29;26.40;55.10
14049;DHT22;7099;53.922;10.728;2023-07-09T18:35:37;26.20;55.10
14049;DHT22;7099;53.922;10.728;2023-07-09T18:39:44;26.10;55.60
14049;DHT22;7099;53.922;10.728;2023-07-09T18:43:49;25.90;55.80
14049;DHT22;7099;53.922;10.728;2023-07-09T18:47:56;25.80;56.30
14049;DHT22;7099;53.922;10.728;2023-07-09T18:52:04;25.70;56.90
14049;DHT22;7099;53.922;10.728;2023-07-09T18:56:15;25.60;57.20
14049;DHT22;7099;53.922;10.728;2023-07-09T19:00:22;25.40;57.60
14049;DHT22;7099;53.922;10.728;2023-07-09T19:04:29;25.20;58.00
14049;DHT22;7099;53.922;10.728;2023-07-09T19:08:36;25.10;58.40
14049;DHT22;7099;53.922;10.728;2023-07-09T19:12:45;25.00;58.70
14049;DHT22;7099;53.922;10.728;2023-07-09T19:16:54;24.90;59.50
14049;DHT22;7099;53.922;10.728;2023-07-09T19:21:01;24.70;59.70
14049;DHT22;7099;53.922;10.728;2023-07-09T19:25:19;24.70;59.90
14049;DHT22;7099;53.922;10.728;2023-07-09T19:29:32;24.60;61.30
14049;DHT22;7099;53.922;10.728;2023-07-09T19:33:40;24.50;60.60
14049;DHT22;7099;53.922;10.728;2023-07-09T19:37:46;24.30;61.20
14049;DHT22;7099;53.922;10.728;2023-07-09T19:41:53;24.30;61.50
14049;DHT22;7099;53.922;10.728;2023-07-09T19:45:59;24.10;61.80
14049;DHT22;7099;53.922;10.728;2023-07-09T19:50:21;24.00;62.20
14049;DHT22;7099;53.922;10.728;2023-07-09T19:54:27;24.00;62.90
14049;DHT22;7099;53.922;10.728;2023-07-09T19:58:32;23.90;63.00
14049;DHT22;7099;53.922;10.728;2023-07-09T20:02:38;23.80;63.30
14049;DHT22;7099;53.922;10.728;2023-07-09T20:06:47;23.70;63.70
14049;DHT22;7099;53.922;10.728;2023-07-09T20:10:55;23.70;64.20
14049;DHT22;7099;53.922;10.728;2023-07-09T20:19:29;23.50;64.70
14049;DHT22;7099;53.922;10.728;2023-07-09T20:23:34;23.50;64.90
14049;DHT22;7099;53.922;10.728;2023-07-09T20:27:40;23.40;65.20
14049;DHT22;7099;53.922;10.728;2023-07-09T20:31:48;23.30;65.60
14049;DHT22;7099;53.922;10.728;2023-07-09T20:35:54;23.20;66.10
14049;DHT22;7099;53.922;10.728;2023-07-09T20:39:59;23.20;66.20
14049;DHT22;7099;53.922;10.728;2023-07-09T20:44:31;23.20;66.80
14049;DHT22;7099;53.922;10.728;2023-07-09T20:48:39;23.10;68.10
14049;DHT22;7099;53.922;10.728;2023-07-09T20:52:46;23.10;67.50
14049;DHT22;7099;53.922;10.728;2023-07-09T20:56:57;23.00;67.70
14049;DHT22;7099;53.922;10.728;2023-07-09T21:01:05;23.00;68.40
14049;DHT22;7099;53.922;10.728;2023-07-09T21:05:10;23.00;68.20
14049;DHT22;7099;53.922;10.728;2023-07-09T21:09:20;22.90;68.60
14049;DHT22;7099;53.922;10.728;2023-07-09T21:13:34;22.60;68.70
14049;DHT22;7099;53.922;10.728;2023-07-09T21:17:40;22.60;67.50
14049;DHT22;7099;53.922;10.728;2023-07-09T21:21:46;22.60;66.40
14049;DHT22;7099;53.922;10.728;2023-07-09T21:25:52;22.70;65.80
14049;DHT22;7099;53.922;10.728;2023-07-09T21:29:57;22.80;65.40
14049;DHT22;7099;53.922;10.728;2023-07-09T21:34:18;22.90;64.90
14049;DHT22;7099;53.922;10.728;2023-07-09T21:38:30;23.00;65.20
14049;DHT22;7099;53.922;10.728;2023-07-09T21:42:36;23.00;65.20
14049;DHT22;7099;53.922;10.728;2023-07-09T21:46:43;22.90;66.30
14049;DHT22;7099;53.922;10.728;2023-07-09T21:50:49;22.90;67.40
14049;DHT22;7099;53.922;10.728;2023-07-09T21:54:55;22.90;68.60
14049;DHT22;7099;53.922;10.728;2023-07-09T21:59:03;22.80;69.10
14049;DHT22;7099;53.922;10.728;2023-07-09T22:03:11;22.80;69.30
14049;DHT22;7099;53.922;10.728;2023-07-09T22:07:20;22.80;69.80
14049;DHT22;7099;53.922;10.728;2023-07-09T22:11:27;22.70;69.70
14049;DHT22;7099;53.922;10.728;2023-07-09T22:15:35;22.70;69.90
14049;DHT22;7099;53.922;10.728;2023-07-09T22:19:40;22.60;70.10
14049;DHT22;7099;53.922;10.728;2023-07-09T22:23:51;22.60;70.20
14049;DHT22;7099;53.922;10.728;2023-07-09T22:27:59;22.60;70.30
14049;DHT22;7099;53.922;10.728;2023-07-09T22:32:06;22.60;70.00
14049;DHT22;7099;53.922;10.728;2023-07-09T22:36:37;22.60;70.20
14049;DHT22;7099;53.922;10.728;2023-07-09T22:40:42;22.60;70.10
14049;DHT22;7099;53.922;10.728;2023-07-09T22:44:48;22.60;70.30
14049;DHT22;7099;53.922;10.728;2023-07-09T22:48:53;22.50;70.50
14049;DHT22;7099;53.922;10.728;2023-07-09T22:52:59;22.50;70.50
14049;DHT22;7099;53.922;10.728;2023-07-09T22:57:05;22.50;70.80
14049;DHT22;7099;53.922;10.728;2023-07-09T23:01:15;22.40;70.80
14049;DHT22;7099;53.922;10.728;2023-07-09T23:05:23;22.40;71.40
14049;DHT22;7099;53.922;10.728;2023-07-09T23:09:28;22.40;71.40
14049;DHT22;7099;53.922;10.728;2023-07-09T23:13:35;22.40;72.20
14049;DHT22;7099;53.922;10.728;2023-07-09T23:17:40;22.40;72.40
14049;DHT22;7099;53.922;10.728;2023-07-09T23:21:47;22.40;72.50
14049;DHT22;7099;53.922;10.728;2023-07-09T23:25:54;22.40;72.80
14049;DHT22;7099;53.922;10.728;2023-07-09T23:30:08;22.40;73.10
14049;DHT22;7099;53.922;10.728;2023-07-09T23:34:33;22.30;73.40
14049;DHT22;7099;53.922;10.728;2023-07-09T23:38:39;22.30;73.70
14049;DHT22;7099;53.922;10.728;2023-07-09T23:42:47;22.30;74.00
14049;DHT22;7099;53.922;10.728;2023-07-09T23:46:54;22.20;74.40
14049;DHT22;7099;53.922;10.728;2023-07-09T23:51:02;22.20;74.10
14049;DHT22;7099;53.922;10.728;2023-07-09T23:55:12;22.20;74.00
14049;DHT22;7099;53.922;10.728;2023-07-09T23:59:29;22.20;73.80
